sensor_id;sensor_type;location;lat;lon;timestamp;P1;durP1;ratioP1;P2;durP2;ratioP2
49582;SDS011;36329;48.816;44.624;2024-03-06T00:01:48;3.4;;;2.4;;
49582;SDS011;36329;48.816;44.624;2024-03-06T00:04:51;2.7;;;1.9;;
49582;SDS011;36329;48.816;44.624;2024-03-06T00:07:53;3.2;;;2.4;;
49582;SDS011;36329;48.816;44.624;2024-03-06T00:10:55;3.3;;;2.1;;
49582;SDS011;36329;48.816;44.624;2024-03-06T00:13:57;2.4;;;1.9;;
49582;SDS011;36329;48.816;44.624;2024-03-06T00:16:59;2.7;;;2;;
49582;SDS011;36329;48.816;44.624;2024-03-06T00:20:01;3.1;;;2.1;;
49582;SDS011;36329;48.816;44.624;2024-03-06T00:23:06;2.8;;;1.9;;
49582;SDS011;36329;48.816;44.624;2024-03-06T00:26:08;2.9;;;1.9;;
49582;SDS011;36329;48.816;44.624;2024-03-06T00:29:10;2.7;;;2;;
49582;SDS011;36329;48.816;44.624;2024-03-06T00:32:13;2.9;;;2.1;;
49582;SDS011;36329;48.816;44.624;2024-03-06T00:35:16;3.5;;;2.1;;
49582;SDS011;36329;48.816;44.624;2024-03-06T00:38:18;2.1;;;1.8;;
49582;SDS011;36329;48.816;44.624;2024-03-06T00:41:21;3.1;;;1.8;;
49582;SDS011;36329;48.816;44.624;2024-03-06T00:44:23;3.5;;;2;;
49582;SDS011;36329;48.816;44.624;2024-03-06T00:47:25;3;;;1.9;;
49582;SDS011;36329;48.816;44.624;2024-03-06T00:50:27;3.1;;;2.1;;
49582;SDS011;36329;48.816;44.624;2024-03-06T00:53:29;3.3;;;2.2;;
49582;SDS011;36329;48.816;44.624;2024-03-06T00:56:31;3;;;2;;
49582;SDS011;36329;48.816;44.624;2024-03-06T00:59:33;2.4;;;1.9;;
49582;SDS011;36329;48.816;44.624;2024-03-06T01:02:35;2.7;;;1.8;;
49582;SDS011;36329;48.816;44.624;2024-03-06T01:05:38;3.3;;;2.1;;
49582;SDS011;36329;48.816;44.624;2024-03-06T01:08:40;3.2;;;2.1;;
49582;SDS011;36329;48.816;44.624;2024-03-06T01:11:42;3.9;;;2;;
49582;SDS011;36329;48.816;44.624;2024-03-06T01:14:44;2.7;;;1.9;;
49582;SDS011;36329;48.816;44.624;2024-03-06T01:17:47;2.9;;;2.1;;
49582;SDS011;36329;48.816;44.624;2024-03-06T01:20:49;2.6;;;1.9;;
49582;SDS011;36329;48.816;44.624;2024-03-06T01:23:51;3;;;2;;
49582;SDS011;36329;48.816;44.624;2024-03-06T01:26:53;3.4;;;1.8;;
49582;SDS011;36329;48.816;44.624;2024-03-06T01:29:55;2.6;;;1.9;;
49582;SDS011;36329;48.816;44.624;2024-03-06T01:32:57;3.7;;;2.2;;
49582;SDS011;36329;48.816;44.624;2024-03-06T01:36:00;3;;;2.2;;
49582;SDS011;36329;48.816;44.624;2024-03-06T01:39:02;2.5;;;2;;
49582;SDS011;36329;48.816;44.624;2024-03-06T01:42:04;2.8;;;2.1;;
49582;SDS011;36329;48.816;44.624;2024-03-06T01:45:07;3.1;;;2.2;;
49582;SDS011;36329;48.816;44.624;2024-03-06T01:48:09;3.1;;;2.3;;
49582;SDS011;36329;48.816;44.624;2024-03-06T01:51:11;3.6;;;2.4;;
49582;SDS011;36329;48.816;44.624;2024-03-06T01:54:14;3.7;;;2.3;;
49582;SDS011;36329;48.816;44.624;2024-03-06T01:57:17;5;;;2.4;;
49582;SDS011;36329;48.816;44.624;2024-03-06T02:00:21;3.3;;;2.2;;
49582;SDS011;36329;48.816;44.624;2024-03-06T02:03:25;4.4;;;2.2;;
49582;SDS011;36329;48.816;44.624;2024-03-06T02:06:27;4.2;;;2.7;;
49582;SDS011;36329;48.816;44.624;2024-03-06T02:09:30;3.2;;;2.3;;
49582;SDS011;36329;48.816;44.624;2024-03-06T02:12:33;3.5;;;2.2;;
49582;SDS011;36329;48.816;44.624;2024-03-06T02:15:35;3.8;;;2.5;;
49582;SDS011;36329;48.816;44.624;2024-03-06T02:18:37;6;;;2.6;;
49582;SDS011;36329;48.816;44.624;2024-03-06T02:21:53;3.9;;;2.4;;
49582;SDS011;36329;48.816;44.624;2024-03-06T02:24:55;4;;;2.3;;
49582;SDS011;36329;48.816;44.624;2024-03-06T02:27:57;4.6;;;2.3;;
49582;SDS011;36329;48.816;44.624;2024-03-06T02:30:59;3;;;2.1;;
49582;SDS011;36329;48.816;44.624;2024-03-06T02:34:01;3.3;;;2.2;;
49582;SDS011;36329;48.816;44.624;2024-03-06T02:37:04;3.5;;;2.2;;
49582;SDS011;36329;48.816;44.624;2024-03-06T02:40:06;3.1;;;2.2;;
49582;SDS011;36329;48.816;44.624;2024-03-06T02:43:09;3.4;;;2.5;;
49582;SDS011;36329;48.816;44.624;2024-03-06T02:46:11;4.8;;;2.2;;
49582;SDS011;36329;48.816;44.624;2024-03-06T02:49:13;3.7;;;2.3;;
49582;SDS011;36329;48.816;44.624;2024-03-06T02:52:15;3.8;;;2.5;;
49582;SDS011;36329;48.816;44.624;2024-03-06T02:55:17;3.4;;;2.4;;
49582;SDS011;36329;48.816;44.624;2024-03-06T02:58:20;3.7;;;2.5;;
49582;SDS011;36329;48.816;44.624;2024-03-06T03:01:23;2.9;;;2.2;;
49582;SDS011;36329;48.816;44.624;2024-03-06T03:04:25;5;;;2.5;;
49582;SDS011;36329;48.816;44.624;2024-03-06T03:07:27;3.4;;;2.3;;
49582;SDS011;36329;48.816;44.624;2024-03-06T03:10:29;3.1;;;2.2;;
49582;SDS011;36329;48.816;44.624;2024-03-06T03:13:31;3.1;;;2.3;;
49582;SDS011;36329;48.816;44.624;2024-03-06T03:16:33;2.6;;;2;;
49582;SDS011;36329;48.816;44.624;2024-03-06T03:19:36;3.7;;;2.5;;
49582;SDS011;36329;48.816;44.624;2024-03-06T03:22:39;3.4;;;2.4;;
49582;SDS011;36329;48.816;44.624;2024-03-06T03:25:42;3.8;;;2.4;;
49582;SDS011;36329;48.816;44.624;2024-03-06T03:28:45;3.8;;;2.4;;
49582;SDS011;36329;48.816;44.624;2024-03-06T03:31:47;3.3;;;2.5;;
49582;SDS011;36329;48.816;44.624;2024-03-06T03:34:49;4.3;;;2.5;;
49582;SDS011;36329;48.816;44.624;2024-03-06T03:37:51;3.6;;;2.5;;
49582;SDS011;36329;48.816;44.624;2024-03-06T03:40:54;4.1;;;2.8;;
49582;SDS011;36329;48.816;44.624;2024-03-06T03:43:56;3.7;;;2.7;;
49582;SDS011;36329;48.816;44.624;2024-03-06T03:46:58;3.9;;;2.7;;
49582;SDS011;36329;48.816;44.624;2024-03-06T03:50:00;3.7;;;2.8;;
49582;SDS011;36329;48.816;44.624;2024-03-06T03:53:02;3.9;;;2.6;;
49582;SDS011;36329;48.816;44.624;2024-03-06T03:56:04;3;;;2.5;;
49582;SDS011;36329;48.816;44.624;2024-03-06T03:59:07;3.9;;;2.9;;
49582;SDS011;36329;48.816;44.624;2024-03-06T04:02:09;3.6;;;2.6;;
49582;SDS011;36329;48.816;44.624;2024-03-06T04:05:12;3.7;;;2.6;;
49582;SDS011;36329;48.816;44.624;2024-03-06T04:08:14;3.5;;;2.6;;
49582;SDS011;36329;48.816;44.624;2024-03-06T04:11:16;5;;;2.9;;
49582;SDS011;36329;48.816;44.624;2024-03-06T04:14:19;4.2;;;2.8;;
49582;SDS011;36329;48.816;44.624;2024-03-06T04:17:21;4.7;;;2.6;;
49582;SDS011;36329;48.816;44.624;2024-03-06T04:20:23;3.7;;;2.5;;
49582;SDS011;36329;48.816;44.624;2024-03-06T04:23:26;4.6;;;2.1;;
49582;SDS011;36329;48.816;44.624;2024-03-06T04:26:28;3.1;;;2.4;;
49582;SDS011;36329;48.816;44.624;2024-03-06T04:29:30;3.4;;;2.3;;
49582;SDS011;36329;48.816;44.624;2024-03-06T04:32:32;5.5;;;2.5;;
49582;SDS011;36329;48.816;44.624;2024-03-06T04:35:34;5;;;2.5;;
49582;SDS011;36329;48.816;44.624;2024-03-06T04:38:37;4.1;;;2.6;;
49582;SDS011;36329;48.816;44.624;2024-03-06T04:41:39;4.8;;;2.3;;
49582;SDS011;36329;48.816;44.624;2024-03-06T04:44:41;3.9;;;2.6;;
49582;SDS011;36329;48.816;44.624;2024-03-06T04:47:43;4;;;2.7;;
49582;SDS011;36329;48.816;44.624;2024-03-06T04:50:45;3.1;;;2.3;;
49582;SDS011;36329;48.816;44.624;2024-03-06T04:53:48;5.4;;;2.8;;
49582;SDS011;36329;48.816;44.624;2024-03-06T04:56:50;3.3;;;2.6;;
49582;SDS011;36329;48.816;44.624;2024-03-06T04:59:52;3.9;;;2.5;;
49582;SDS011;36329;48.816;44.624;2024-03-06T05:02:54;3.5;;;2.7;;
49582;SDS011;36329;48.816;44.624;2024-03-06T05:05:56;3.6;;;2.6;;
49582;SDS011;36329;48.816;44.624;2024-03-06T05:08:59;4.5;;;2.7;;
49582;SDS011;36329;48.816;44.624;2024-03-06T05:12:02;4.5;;;2.3;;
49582;SDS011;36329;48.816;44.624;2024-03-06T05:15:05;4;;;2.5;;
49582;SDS011;36329;48.816;44.624;2024-03-06T05:18:07;2.5;;;2.1;;
49582;SDS011;36329;48.816;44.624;2024-03-06T05:21:09;2.9;;;2.3;;
49582;SDS011;36329;48.816;44.624;2024-03-06T05:24:11;3.7;;;2.5;;
49582;SDS011;36329;48.816;44.624;2024-03-06T05:27:14;3.6;;;2.5;;
49582;SDS011;36329;48.816;44.624;2024-03-06T05:30:16;4.4;;;2.9;;
49582;SDS011;36329;48.816;44.624;2024-03-06T05:33:18;3.8;;;2.6;;
49582;SDS011;36329;48.816;44.624;2024-03-06T05:36:20;3.6;;;2.6;;
49582;SDS011;36329;48.816;44.624;2024-03-06T05:39:22;4.3;;;2.7;;
49582;SDS011;36329;48.816;44.624;2024-03-06T05:42:25;5.1;;;2.4;;
49582;SDS011;36329;48.816;44.624;2024-03-06T05:45:27;3.9;;;2.7;;
49582;SDS011;36329;48.816;44.624;2024-03-06T05:48:29;4.6;;;2.7;;
49582;SDS011;36329;48.816;44.624;2024-03-06T05:51:31;4.2;;;2.5;;
49582;SDS011;36329;48.816;44.624;2024-03-06T05:54:33;3.1;;;2.1;;
49582;SDS011;36329;48.816;44.624;2024-03-06T05:57:35;3.4;;;2.5;;
49582;SDS011;36329;48.816;44.624;2024-03-06T06:00:37;3.2;;;2.3;;
49582;SDS011;36329;48.816;44.624;2024-03-06T06:03:40;4;;;2.7;;
49582;SDS011;36329;48.816;44.624;2024-03-06T06:06:42;3.5;;;2.2;;
49582;SDS011;36329;48.816;44.624;2024-03-06T06:09:44;3.9;;;2.8;;
49582;SDS011;36329;48.816;44.624;2024-03-06T06:12:46;4.4;;;2.8;;
49582;SDS011;36329;48.816;44.624;2024-03-06T06:15:48;5;;;2.7;;
49582;SDS011;36329;48.816;44.624;2024-03-06T06:18:50;4.3;;;2.5;;
49582;SDS011;36329;48.816;44.624;2024-03-06T06:21:53;4;;;2.7;;
49582;SDS011;36329;48.816;44.624;2024-03-06T06:24:56;3.7;;;2.6;;
49582;SDS011;36329;48.816;44.624;2024-03-06T06:27:59;4.9;;;2.9;;
49582;SDS011;36329;48.816;44.624;2024-03-06T06:31:01;3.8;;;2.5;;
49582;SDS011;36329;48.816;44.624;2024-03-06T06:34:03;4.3;;;3;;
49582;SDS011;36329;48.816;44.624;2024-03-06T06:37:05;4.2;;;2.8;;
49582;SDS011;36329;48.816;44.624;2024-03-06T06:40:08;4;;;2.8;;
49582;SDS011;36329;48.816;44.624;2024-03-06T06:43:10;4.8;;;3;;
49582;SDS011;36329;48.816;44.624;2024-03-06T06:46:13;5.2;;;2.8;;
49582;SDS011;36329;48.816;44.624;2024-03-06T06:49:15;4.9;;;2.7;;
49582;SDS011;36329;48.816;44.624;2024-03-06T06:52:17;4.9;;;2.9;;
49582;SDS011;36329;48.816;44.624;2024-03-06T06:55:19;3.9;;;2.7;;
49582;SDS011;36329;48.816;44.624;2024-03-06T06:58:21;4.6;;;2.7;;
49582;SDS011;36329;48.816;44.624;2024-03-06T07:01:23;4.2;;;2.5;;
49582;SDS011;36329;48.816;44.624;2024-03-06T07:04:26;3.8;;;2.7;;
49582;SDS011;36329;48.816;44.624;2024-03-06T07:07:28;4.4;;;2.7;;
49582;SDS011;36329;48.816;44.624;2024-03-06T07:10:30;4.6;;;2.9;;
49582;SDS011;36329;48.816;44.624;2024-03-06T07:13:32;5.3;;;3;;
49582;SDS011;36329;48.816;44.624;2024-03-06T07:16:34;4.5;;;2.9;;
49582;SDS011;36329;48.816;44.624;2024-03-06T07:19:43;4.7;;;2.9;;
49582;SDS011;36329;48.816;44.624;2024-03-06T07:22:45;4.5;;;2.7;;
49582;SDS011;36329;48.816;44.624;2024-03-06T07:25:48;4.7;;;3.3;;
49582;SDS011;36329;48.816;44.624;2024-03-06T07:28:50;4.6;;;3;;
49582;SDS011;36329;48.816;44.624;2024-03-06T07:31:52;6;;;2.9;;
49582;SDS011;36329;48.816;44.624;2024-03-06T07:34:54;4.8;;;2.8;;
49582;SDS011;36329;48.816;44.624;2024-03-06T07:37:56;3.5;;;2.6;;
49582;SDS011;36329;48.816;44.624;2024-03-06T07:40:58;4.5;;;3;;
49582;SDS011;36329;48.816;44.624;2024-03-06T07:44:00;4;;;2.8;;
49582;SDS011;36329;48.816;44.624;2024-03-06T07:47:02;3.7;;;2.4;;
49582;SDS011;36329;48.816;44.624;2024-03-06T07:50:05;3.1;;;2.2;;
49582;SDS011;36329;48.816;44.624;2024-03-06T07:53:07;3.4;;;2.6;;
49582;SDS011;36329;48.816;44.624;2024-03-06T07:56:10;3.9;;;2.7;;
49582;SDS011;36329;48.816;44.624;2024-03-06T07:59:12;4.2;;;2.6;;
49582;SDS011;36329;48.816;44.624;2024-03-06T08:02:14;5;;;2.9;;
49582;SDS011;36329;48.816;44.624;2024-03-06T08:05:17;4.2;;;2.8;;
49582;SDS011;36329;48.816;44.624;2024-03-06T08:08:19;4.9;;;2.8;;
49582;SDS011;36329;48.816;44.624;2024-03-06T08:11:22;3.7;;;2.5;;
49582;SDS011;36329;48.816;44.624;2024-03-06T08:14:24;4;;;2.6;;
49582;SDS011;36329;48.816;44.624;2024-03-06T08:17:26;4.3;;;2.6;;
49582;SDS011;36329;48.816;44.624;2024-03-06T08:20:29;3.8;;;2.6;;
49582;SDS011;36329;48.816;44.624;2024-03-06T08:23:31;3.7;;;2.7;;
49582;SDS011;36329;48.816;44.624;2024-03-06T08:26:33;3.8;;;2.6;;
49582;SDS011;36329;48.816;44.624;2024-03-06T08:29:35;4.3;;;2.9;;
49582;SDS011;36329;48.816;44.624;2024-03-06T08:32:37;5.3;;;2.8;;
49582;SDS011;36329;48.816;44.624;2024-03-06T08:35:39;4.2;;;2.6;;
49582;SDS011;36329;48.816;44.624;2024-03-06T08:38:42;4;;;2.8;;
49582;SDS011;36329;48.816;44.624;2024-03-06T08:41:44;4.5;;;2.7;;
49582;SDS011;36329;48.816;44.624;2024-03-06T08:44:46;3.3;;;2.5;;
49582;SDS011;36329;48.816;44.624;2024-03-06T08:47:49;4.1;;;2.7;;
49582;SDS011;36329;48.816;44.624;2024-03-06T08:50:51;5;;;2.7;;
49582;SDS011;36329;48.816;44.624;2024-03-06T08:53:53;5.2;;;2.6;;
49582;SDS011;36329;48.816;44.624;2024-03-06T08:56:55;3.7;;;2.6;;
49582;SDS011;36329;48.816;44.624;2024-03-06T08:59:58;3.7;;;2.5;;
49582;SDS011;36329;48.816;44.624;2024-03-06T09:03:00;4.6;;;2.9;;
49582;SDS011;36329;48.816;44.624;2024-03-06T09:06:03;5.1;;;3;;
49582;SDS011;36329;48.816;44.624;2024-03-06T09:09:05;3.5;;;2.7;;
49582;SDS011;36329;48.816;44.624;2024-03-06T09:12:08;4.5;;;3;;
49582;SDS011;36329;48.816;44.624;2024-03-06T09:15:10;4.6;;;3.2;;
49582;SDS011;36329;48.816;44.624;2024-03-06T09:18:13;4.7;;;3.1;;
49582;SDS011;36329;48.816;44.624;2024-03-06T09:21:16;4.6;;;3.1;;
49582;SDS011;36329;48.816;44.624;2024-03-06T09:24:18;5.4;;;3;;
49582;SDS011;36329;48.816;44.624;2024-03-06T09:27:21;4.8;;;3;;
49582;SDS011;36329;48.816;44.624;2024-03-06T09:30:23;5.2;;;3.2;;
49582;SDS011;36329;48.816;44.624;2024-03-06T09:33:25;5.1;;;3;;
49582;SDS011;36329;48.816;44.624;2024-03-06T09:36:27;4.1;;;2.9;;
49582;SDS011;36329;48.816;44.624;2024-03-06T09:39:30;4.5;;;2.9;;
49582;SDS011;36329;48.816;44.624;2024-03-06T09:42:33;4.9;;;2.8;;
49582;SDS011;36329;48.816;44.624;2024-03-06T09:45:35;6.5;;;2.8;;
49582;SDS011;36329;48.816;44.624;2024-03-06T09:48:37;5.5;;;3.5;;
49582;SDS011;36329;48.816;44.624;2024-03-06T09:51:48;5.6;;;3.3;;
49582;SDS011;36329;48.816;44.624;2024-03-06T09:54:51;5.4;;;3.3;;
49582;SDS011;36329;48.816;44.624;2024-03-06T09:57:55;5.4;;;3.3;;
49582;SDS011;36329;48.816;44.624;2024-03-06T10:00:57;4.9;;;3.2;;
49582;SDS011;36329;48.816;44.624;2024-03-06T10:07:22;4.9;;;3.4;;
49582;SDS011;36329;48.816;44.624;2024-03-06T10:10:24;5.4;;;3.2;;
49582;SDS011;36329;48.816;44.624;2024-03-06T10:13:26;4.9;;;3.1;;
49582;SDS011;36329;48.816;44.624;2024-03-06T10:16:29;5.7;;;3;;
49582;SDS011;36329;48.816;44.624;2024-03-06T10:19:31;4.3;;;3;;
49582;SDS011;36329;48.816;44.624;2024-03-06T10:22:34;6.1;;;3.1;;
49582;SDS011;36329;48.816;44.624;2024-03-06T10:25:37;5.2;;;3.4;;
49582;SDS011;36329;48.816;44.624;2024-03-06T10:28:44;5.5;;;3.6;;
49582;SDS011;36329;48.816;44.624;2024-03-06T10:31:49;4.9;;;3.3;;
49582;SDS011;36329;48.816;44.624;2024-03-06T10:34:53;5.4;;;3.3;;
49582;SDS011;36329;48.816;44.624;2024-03-06T10:37:55;5.9;;;3.5;;
49582;SDS011;36329;48.816;44.624;2024-03-06T10:40:57;6.1;;;3.5;;
49582;SDS011;36329;48.816;44.624;2024-03-06T10:44:00;5.6;;;3.4;;
49582;SDS011;36329;48.816;44.624;2024-03-06T10:47:05;5.7;;;3.2;;
49582;SDS011;36329;48.816;44.624;2024-03-06T10:50:12;6.2;;;3.5;;
49582;SDS011;36329;48.816;44.624;2024-03-06T10:53:17;5.7;;;3.4;;
49582;SDS011;36329;48.816;44.624;2024-03-06T10:56:20;5.3;;;3.4;;
49582;SDS011;36329;48.816;44.624;2024-03-06T10:59:24;5.2;;;3.5;;
49582;SDS011;36329;48.816;44.624;2024-03-06T11:02:28;6.7;;;3.4;;
49582;SDS011;36329;48.816;44.624;2024-03-06T11:05:31;5.7;;;3.5;;
49582;SDS011;36329;48.816;44.624;2024-03-06T11:08:34;6.3;;;3.7;;
49582;SDS011;36329;48.816;44.624;2024-03-06T11:11:39;7.3;;;3.3;;
49582;SDS011;36329;48.816;44.624;2024-03-06T11:14:50;6.1;;;3.6;;
49582;SDS011;36329;48.816;44.624;2024-03-06T11:17:52;6;;;3.3;;
49582;SDS011;36329;48.816;44.624;2024-03-06T11:20:59;5.8;;;3.8;;
49582;SDS011;36329;48.816;44.624;2024-03-06T11:27:21;4.7;;;3.2;;
49582;SDS011;36329;48.816;44.624;2024-03-06T11:30:24;4.7;;;3.2;;
49582;SDS011;36329;48.816;44.624;2024-03-06T11:33:29;5;;;3.4;;
49582;SDS011;36329;48.816;44.624;2024-03-06T11:36:37;5.2;;;3.4;;
49582;SDS011;36329;48.816;44.624;2024-03-06T11:39:42;6.2;;;3.6;;
49582;SDS011;36329;48.816;44.624;2024-03-06T11:42:44;5.9;;;3.8;;
49582;SDS011;36329;48.816;44.624;2024-03-06T11:45:47;6.3;;;3.6;;
49582;SDS011;36329;48.816;44.624;2024-03-06T11:48:51;7.6;;;4;;
49582;SDS011;36329;48.816;44.624;2024-03-06T11:51:55;5.3;;;3.6;;
49582;SDS011;36329;48.816;44.624;2024-03-06T11:54:58;6.1;;;3.7;;
49582;SDS011;36329;48.816;44.624;2024-03-06T11:58:00;6.2;;;4.1;;
49582;SDS011;36329;48.816;44.624;2024-03-06T12:01:03;5.2;;;3.3;;
49582;SDS011;36329;48.816;44.624;2024-03-06T12:04:05;5.5;;;3.6;;
49582;SDS011;36329;48.816;44.624;2024-03-06T12:07:08;9.2;;;3.8;;
49582;SDS011;36329;48.816;44.624;2024-03-06T12:10:10;8.8;;;4.1;;
49582;SDS011;36329;48.816;44.624;2024-03-06T12:13:12;6.4;;;3.9;;
49582;SDS011;36329;48.816;44.624;2024-03-06T12:16:14;6.6;;;4.3;;
49582;SDS011;36329;48.816;44.624;2024-03-06T12:19:16;8.4;;;4.4;;
49582;SDS011;36329;48.816;44.624;2024-03-06T12:22:19;7.8;;;4.1;;
49582;SDS011;36329;48.816;44.624;2024-03-06T12:25:21;7.6;;;3.9;;
49582;SDS011;36329;48.816;44.624;2024-03-06T12:28:24;7.5;;;4.2;;
49582;SDS011;36329;48.816;44.624;2024-03-06T12:31:26;6.2;;;4.2;;
49582;SDS011;36329;48.816;44.624;2024-03-06T12:34:28;6.2;;;4;;
49582;SDS011;36329;48.816;44.624;2024-03-06T12:37:32;8.4;;;4.1;;
49582;SDS011;36329;48.816;44.624;2024-03-06T12:40:34;7.2;;;4;;
49582;SDS011;36329;48.816;44.624;2024-03-06T12:43:36;6.7;;;4.2;;
49582;SDS011;36329;48.816;44.624;2024-03-06T12:46:39;5.9;;;4;;
49582;SDS011;36329;48.816;44.624;2024-03-06T12:49:41;6.8;;;4.1;;
49582;SDS011;36329;48.816;44.624;2024-03-06T12:52:43;7.9;;;3.8;;
49582;SDS011;36329;48.816;44.624;2024-03-06T12:55:45;6;;;3.6;;
49582;SDS011;36329;48.816;44.624;2024-03-06T12:58:47;7.6;;;3.8;;
49582;SDS011;36329;48.816;44.624;2024-03-06T13:01:49;5.8;;;3.5;;
49582;SDS011;36329;48.816;44.624;2024-03-06T13:04:52;6.3;;;3.9;;
49582;SDS011;36329;48.816;44.624;2024-03-06T13:07:54;7;;;3.4;;
49582;SDS011;36329;48.816;44.624;2024-03-06T13:10:56;6.5;;;3.8;;
49582;SDS011;36329;48.816;44.624;2024-03-06T13:13:59;6.9;;;4;;
49582;SDS011;36329;48.816;44.624;2024-03-06T13:17:01;4.9;;;3;;
49582;SDS011;36329;48.816;44.624;2024-03-06T13:20:03;6.7;;;3.7;;
49582;SDS011;36329;48.816;44.624;2024-03-06T13:23:06;10.9;;;4.2;;
49582;SDS011;36329;48.816;44.624;2024-03-06T13:26:08;6.7;;;3.7;;
49582;SDS011;36329;48.816;44.624;2024-03-06T13:29:10;7.1;;;4.1;;
49582;SDS011;36329;48.816;44.624;2024-03-06T13:32:12;6.1;;;3.6;;
49582;SDS011;36329;48.816;44.624;2024-03-06T13:35:15;7;;;4.2;;
49582;SDS011;36329;48.816;44.624;2024-03-06T13:38:18;8.5;;;4.6;;
49582;SDS011;36329;48.816;44.624;2024-03-06T13:41:20;6.1;;;4.1;;
49582;SDS011;36329;48.816;44.624;2024-03-06T13:44:22;7.9;;;4.4;;
49582;SDS011;36329;48.816;44.624;2024-03-06T13:47:32;8.6;;;3.9;;
49582;SDS011;36329;48.816;44.624;2024-03-06T13:50:35;5.7;;;3.8;;
49582;SDS011;36329;48.816;44.624;2024-03-06T13:53:37;6.3;;;4;;
49582;SDS011;36329;48.816;44.624;2024-03-06T13:56:39;8.3;;;4.3;;
49582;SDS011;36329;48.816;44.624;2024-03-06T13:59:42;7.6;;;4.1;;
49582;SDS011;36329;48.816;44.624;2024-03-06T14:02:44;6.8;;;3.9;;
49582;SDS011;36329;48.816;44.624;2024-03-06T14:05:47;7.1;;;4.1;;
49582;SDS011;36329;48.816;44.624;2024-03-06T14:08:49;7.4;;;4.6;;
49582;SDS011;36329;48.816;44.624;2024-03-06T14:11:51;6.5;;;4.4;;
49582;SDS011;36329;48.816;44.624;2024-03-06T14:14:54;7.7;;;4.4;;
49582;SDS011;36329;48.816;44.624;2024-03-06T14:17:56;8.5;;;4.1;;
49582;SDS011;36329;48.816;44.624;2024-03-06T14:20:58;7.3;;;4.4;;
49582;SDS011;36329;48.816;44.624;2024-03-06T14:24:00;6.5;;;4.3;;
49582;SDS011;36329;48.816;44.624;2024-03-06T14:27:02;7.1;;;4.3;;
49582;SDS011;36329;48.816;44.624;2024-03-06T14:30:05;8.4;;;4.8;;
49582;SDS011;36329;48.816;44.624;2024-03-06T14:33:08;11.9;;;4.7;;
49582;SDS011;36329;48.816;44.624;2024-03-06T14:36:10;8.2;;;4.2;;
49582;SDS011;36329;48.816;44.624;2024-03-06T14:39:12;7.7;;;4.6;;
49582;SDS011;36329;48.816;44.624;2024-03-06T14:42:14;8.6;;;4.8;;
49582;SDS011;36329;48.816;44.624;2024-03-06T14:45:17;7.1;;;4.5;;
49582;SDS011;36329;48.816;44.624;2024-03-06T14:48:19;6.7;;;4.8;;
49582;SDS011;36329;48.816;44.624;2024-03-06T14:51:21;7.1;;;4.6;;
49582;SDS011;36329;48.816;44.624;2024-03-06T14:54:24;8.2;;;5.1;;
49582;SDS011;36329;48.816;44.624;2024-03-06T14:57:26;9.8;;;5.1;;
49582;SDS011;36329;48.816;44.624;2024-03-06T15:00:29;7.7;;;5.1;;
49582;SDS011;36329;48.816;44.624;2024-03-06T15:03:31;8.9;;;5.2;;
49582;SDS011;36329;48.816;44.624;2024-03-06T15:06:33;8.5;;;5.1;;
49582;SDS011;36329;48.816;44.624;2024-03-06T15:09:35;9.4;;;5.6;;
49582;SDS011;36329;48.816;44.624;2024-03-06T15:12:38;9.7;;;5.8;;
49582;SDS011;36329;48.816;44.624;2024-03-06T15:15:40;9.2;;;6;;
49582;SDS011;36329;48.816;44.624;2024-03-06T15:18:42;8.7;;;5.6;;
49582;SDS011;36329;48.816;44.624;2024-03-06T15:21:44;11.8;;;6.4;;
49582;SDS011;36329;48.816;44.624;2024-03-06T15:24:47;10;;;6.2;;
49582;SDS011;36329;48.816;44.624;2024-03-06T15:27:49;10.6;;;6.4;;
49582;SDS011;36329;48.816;44.624;2024-03-06T15:30:51;12;;;6.2;;
49582;SDS011;36329;48.816;44.624;2024-03-06T15:33:53;8.6;;;5.5;;
49582;SDS011;36329;48.816;44.624;2024-03-06T15:36:55;9.4;;;5.1;;
49582;SDS011;36329;48.816;44.624;2024-03-06T15:39:57;9;;;5.7;;
49582;SDS011;36329;48.816;44.624;2024-03-06T15:43:00;10.2;;;5.7;;
49582;SDS011;36329;48.816;44.624;2024-03-06T15:46:02;10.3;;;5.9;;
49582;SDS011;36329;48.816;44.624;2024-03-06T15:49:06;9.5;;;6;;
49582;SDS011;36329;48.816;44.624;2024-03-06T15:52:10;7.9;;;5.4;;
49582;SDS011;36329;48.816;44.624;2024-03-06T15:55:12;9.6;;;5.8;;
49582;SDS011;36329;48.816;44.624;2024-03-06T15:58:14;8.2;;;5.7;;
49582;SDS011;36329;48.816;44.624;2024-03-06T16:01:16;9.6;;;5.5;;
49582;SDS011;36329;48.816;44.624;2024-03-06T16:04:20;8.5;;;5.3;;
49582;SDS011;36329;48.816;44.624;2024-03-06T16:07:22;8;;;5.5;;
49582;SDS011;36329;48.816;44.624;2024-03-06T16:10:26;10;;;6.4;;
49582;SDS011;36329;48.816;44.624;2024-03-06T16:13:28;12.2;;;6.9;;
49582;SDS011;36329;48.816;44.624;2024-03-06T16:16:31;12.3;;;7.9;;
49582;SDS011;36329;48.816;44.624;2024-03-06T16:19:33;12.6;;;7;;
49582;SDS011;36329;48.816;44.624;2024-03-06T16:22:36;9.7;;;6.3;;
49582;SDS011;36329;48.816;44.624;2024-03-06T16:25:38;9.6;;;5.8;;
49582;SDS011;36329;48.816;44.624;2024-03-06T16:28:40;9.1;;;6;;
49582;SDS011;36329;48.816;44.624;2024-03-06T16:31:43;9.3;;;5.7;;
49582;SDS011;36329;48.816;44.624;2024-03-06T16:34:45;11.2;;;6.1;;
49582;SDS011;36329;48.816;44.624;2024-03-06T16:37:47;8.9;;;5.8;;
49582;SDS011;36329;48.816;44.624;2024-03-06T16:40:49;10.5;;;6.1;;
49582;SDS011;36329;48.816;44.624;2024-03-06T16:43:52;11.3;;;6.7;;
49582;SDS011;36329;48.816;44.624;2024-03-06T16:46:54;9.5;;;5.9;;
49582;SDS011;36329;48.816;44.624;2024-03-06T16:49:56;8.7;;;5.4;;
49582;SDS011;36329;48.816;44.624;2024-03-06T16:52:58;9.5;;;5.9;;
49582;SDS011;36329;48.816;44.624;2024-03-06T16:56:01;10.2;;;5.8;;
49582;SDS011;36329;48.816;44.624;2024-03-06T16:59:03;7.7;;;5.2;;
49582;SDS011;36329;48.816;44.624;2024-03-06T17:02:05;9.2;;;5.7;;
49582;SDS011;36329;48.816;44.624;2024-03-06T17:05:08;8.7;;;5.6;;
49582;SDS011;36329;48.816;44.624;2024-03-06T17:08:10;8.8;;;5.4;;
49582;SDS011;36329;48.816;44.624;2024-03-06T17:11:12;8.4;;;5.4;;
49582;SDS011;36329;48.816;44.624;2024-03-06T17:14:14;7.1;;;4.7;;
49582;SDS011;36329;48.816;44.624;2024-03-06T17:17:16;8.8;;;5;;
49582;SDS011;36329;48.816;44.624;2024-03-06T17:20:19;8.7;;;5;;
49582;SDS011;36329;48.816;44.624;2024-03-06T17:23:21;7.9;;;4.6;;
49582;SDS011;36329;48.816;44.624;2024-03-06T17:26:23;8.5;;;4.8;;
49582;SDS011;36329;48.816;44.624;2024-03-06T17:29:25;8.8;;;4.7;;
49582;SDS011;36329;48.816;44.624;2024-03-06T17:32:27;11.7;;;5;;
49582;SDS011;36329;48.816;44.624;2024-03-06T17:35:29;10.9;;;4.9;;
49582;SDS011;36329;48.816;44.624;2024-03-06T17:38:31;7.9;;;4.9;;
49582;SDS011;36329;48.816;44.624;2024-03-06T17:41:34;8.8;;;5;;
49582;SDS011;36329;48.816;44.624;2024-03-06T17:44:36;7;;;4.4;;
49582;SDS011;36329;48.816;44.624;2024-03-06T17:47:38;8.5;;;4.5;;
49582;SDS011;36329;48.816;44.624;2024-03-06T17:50:41;6.7;;;4.7;;
49582;SDS011;36329;48.816;44.624;2024-03-06T17:53:43;7.2;;;4.5;;
49582;SDS011;36329;48.816;44.624;2024-03-06T17:56:46;6.7;;;3.9;;
49582;SDS011;36329;48.816;44.624;2024-03-06T17:59:48;8;;;4.6;;
49582;SDS011;36329;48.816;44.624;2024-03-06T18:02:51;6.9;;;4.5;;
49582;SDS011;36329;48.816;44.624;2024-03-06T18:05:53;8.7;;;5;;
49582;SDS011;36329;48.816;44.624;2024-03-06T18:08:55;7.2;;;4.5;;
49582;SDS011;36329;48.816;44.624;2024-03-06T18:11:57;8.4;;;4.5;;
49582;SDS011;36329;48.816;44.624;2024-03-06T18:15:00;7.2;;;4.5;;
49582;SDS011;36329;48.816;44.624;2024-03-06T18:18:02;9.6;;;4.9;;
49582;SDS011;36329;48.816;44.624;2024-03-06T18:21:05;8;;;4.9;;
49582;SDS011;36329;48.816;44.624;2024-03-06T18:24:07;7.2;;;4.8;;
49582;SDS011;36329;48.816;44.624;2024-03-06T18:27:10;8.8;;;5.1;;
49582;SDS011;36329;48.816;44.624;2024-03-06T18:30:12;9.5;;;4.6;;
49582;SDS011;36329;48.816;44.624;2024-03-06T18:33:14;9.2;;;4.6;;
49582;SDS011;36329;48.816;44.624;2024-03-06T18:36:17;8.6;;;4.7;;
49582;SDS011;36329;48.816;44.624;2024-03-06T18:39:19;9.5;;;5.1;;
49582;SDS011;36329;48.816;44.624;2024-03-06T18:42:22;10.1;;;5.6;;
49582;SDS011;36329;48.816;44.624;2024-03-06T18:45:24;8.3;;;4.9;;
49582;SDS011;36329;48.816;44.624;2024-03-06T18:48:26;7.8;;;4.9;;